KPZQ METAR Reports


Rogers City, Presque Isle County Airport, MI, United States (KPZQ) 45-24-25N 083-48-46W
Apr 23, 2021 - 09:55 AM EDT / 2021.04.23 1355 UTC
Wind: from the W (260 degrees) at 12 MPH (10 KT) gusting to 16 MPH (14 KT):0
Visibility: 10 mile(s):0
Sky conditions: clear
Temperature: 52.2 F (11.2 C)
Dew Point: 28.9 F (-1.7 C)
Relative Humidity: 40%
Pressure (altimeter): 29.9 in. Hg (1012 hPa)
ob: KPZQ 231355Z AUTO 26010G14KT 10SM CLR 11/M02 A2990 RMK AO2 T01121017
cycle: 14

 

Rogers City METAR Meteogram

Weather Chart

Nearby METAR Reports

KPZQ - Rogers City, Michigan, USA
Distance from station: SSW 1mi, 2km
Updated: Fri, 23-Apr-2021 9:55am EDT
Clear
Clear
 Wind from W
Wind: W 12 mph , 19 km/h, Gust: 16 mph , 26 km/h
Temperature: 52°F , 11°C
Dew Point: 28°F , -2°C
Humidity: 41%
Barometer: 29.90 inHg , 1012.5 hPa
Clouds: Clear
Visibility: 10 miles , 16 km
2021/04/23 13:55 KPZQ 231355Z AUTO 26010G14KT 10SM CLR 11/M02 A2990 RMK AO2 T01121017
KAPN - Alpena, Michigan, USA
Distance from station: SSE 27mi, 43km
Updated: Fri, 23-Apr-2021 9:54am EDT
Clear
Clear
 Wind from W
Wind: W 9 mph , 15 km/h
Temperature: 54°F , 12°C
Dew Point: 27°F , -3°C
Humidity: 35%
Barometer: 29.90 inHg , 1012.5 hPa
Clouds: Clear
Visibility: 10 miles , 16 km
2021/04/23 13:54 KAPN 231354Z 28008KT 10SM CLR 12/M03 A2990 RMK AO2 SLP129 T01171028
 
KSLH - Cheboygan, Michigan, USA
Distance from station: WNW 38mi, 61km
Updated: Fri, 23-Apr-2021 9:55am EDT
Mostly cloudy
Mostly cloudy
 Wind from WSW
Wind: WSW 9 mph , 15 km/h
Temperature: 52°F , 11°C
Dew Point: 32°F , 0°C
Humidity: 47%
Barometer: 29.87 inHg , 1011.5 hPa
Clouds: Mostly cloudy
Visibility: 10 miles , 16 km
Cloud details: Mostly cloudy 10000 ft
2021/04/23 13:55 KSLH 231355Z AUTO 24008KT 210V270 10SM BKN100 11/00 A2987 RMK AO2
KDRM - Drummond Is, Michigan, USA
Distance from station: N 40mi, 65km
Updated: Fri, 23-Apr-2021 9:55am EDT
Clear
Clear
 Wind from SW
Wind: SW 8 mph , 13 km/h
Temperature: 46°F , 8°C
Wind Chill: 42°F , 6°C
Dew Point: 30°F , -1°C
Humidity: 53%
Barometer: 29.88 inHg , 1011.9 hPa
Clouds: Clear
Visibility: 10 miles , 16 km
2021/04/23 13:55 KDRM 231355Z AUTO 22007KT 10SM CLR 08/M01 A2988 RMK AO2 T00781008
 
KPLN - Pellston, Michigan, USA
Distance from station: WNW 49mi, 79km
Updated: Fri, 23-Apr-2021 9:54am EDT
Mostly cloudy
Mostly cloudy
 Wind from W
Wind: W 12 mph , 19 km/h
Temperature: 54°F , 12°C
Dew Point: 30°F , -1°C
Humidity: 41%
Barometer: 29.89 inHg , 1012.2 hPa
Clouds: Mostly cloudy
Visibility: 10 miles , 16 km
Cloud details: Mostly cloudy 10000 ft
2021/04/23 13:54 KPLN 231354Z AUTO 26010KT 10SM BKN100 12/M01 A2989 RMK AO2 SLP127 T01171011
KMCD - Mackinac Island, Michigan, USA
Distance from station: NW 50mi, 80km
Updated: Fri, 23-Apr-2021 9:55am EDT
Clear
Clear
 Wind from WSW
Wind: WSW 10 mph , 17 km/h, Gust: 20 mph , 31 km/h
Temperature: 46°F , 8°C
Wind Chill: 41°F , 5°C
Dew Point: 34°F , 1°C
Humidity: 62%
Barometer: 29.88 inHg , 1011.9 hPa
Clouds: Clear
Visibility: 10 miles , 16 km
2021/04/23 13:55 KMCD 231355Z AUTO 24009G17KT 10SM CLR 08/01 A2988 RMK AO2 T00780005